sensor_id;sensor_type;location;lat;lon;timestamp;pressure;altitude;pressure_sealevel;temperature;humidity
35224;BME280;21367;51.930;8.112;2023-06-10T00:04:47;100917.03;;;19.46;70.92
35224;BME280;21367;51.930;8.112;2023-06-10T00:09:53;100920.34;;;19.33;70.81
35224;BME280;21367;51.930;8.112;2023-06-10T00:14:58;100922.69;;;19.04;72.39
35224;BME280;21367;51.930;8.112;2023-06-10T00:20:01;100918.56;;;19.24;71.58
35224;BME280;21367;51.930;8.112;2023-06-10T00:25:12;100912.41;;;19.21;71.48
35224;BME280;21367;51.930;8.112;2023-06-10T00:30:15;100906.34;;;19.18;71.37
35224;BME280;21367;51.930;8.112;2023-06-10T00:35:19;100916.63;;;19.06;71.77
35224;BME280;21367;51.930;8.112;2023-06-10T00:40:25;100916.59;;;19.03;72.16
35224;BME280;21367;51.930;8.112;2023-06-10T00:45:29;100920.81;;;18.92;72.41
35224;BME280;21367;51.930;8.112;2023-06-10T00:50:33;100925.78;;;18.73;73.21
35224;BME280;21367;51.930;8.112;2023-06-10T00:55:42;100927.59;;;18.78;73.46
35224;BME280;21367;51.930;8.112;2023-06-10T01:00:46;100924.84;;;18.70;73.04
35224;BME280;21367;51.930;8.112;2023-06-10T01:05:55;100926.31;;;18.46;74.15
35224;BME280;21367;51.930;8.112;2023-06-10T01:11:07;100929.00;;;18.53;74.04
35224;BME280;21367;51.930;8.112;2023-06-10T01:16:12;100932.16;;;18.32;74.33
35224;BME280;21367;51.930;8.112;2023-06-10T01:21:19;100932.97;;;18.27;73.93
35224;BME280;21367;51.930;8.112;2023-06-10T01:26:29;100940.09;;;18.41;73.39
35224;BME280;21367;51.930;8.112;2023-06-10T01:31:40;100944.13;;;18.20;74.25
35224;BME280;21367;51.930;8.112;2023-06-10T01:36:50;100938.00;;;18.15;74.05
35224;BME280;21367;51.930;8.112;2023-06-10T01:41:54;100938.84;;;18.13;73.78
35224;BME280;21367;51.930;8.112;2023-06-10T01:46:58;100942.22;;;18.07;74.33
35224;BME280;21367;51.930;8.112;2023-06-10T01:52:06;100943.84;;;18.00;74.53
35224;BME280;21367;51.930;8.112;2023-06-10T01:57:10;100947.06;;;17.86;74.06
35224;BME280;21367;51.930;8.112;2023-06-10T02:02:13;100938.38;;;17.84;74.39
35224;BME280;21367;51.930;8.112;2023-06-10T02:07:20;100943.31;;;17.68;74.53
35224;BME280;21367;51.930;8.112;2023-06-10T02:12:23;100937.91;;;17.57;75.33
35224;BME280;21367;51.930;8.112;2023-06-10T02:17:27;100949.91;;;17.49;75.24
35224;BME280;21367;51.930;8.112;2023-06-10T02:22:34;100961.03;;;17.42;75.15
35224;BME280;21367;51.930;8.112;2023-06-10T02:27:37;100961.41;;;17.15;75.82
35224;BME280;21367;51.930;8.112;2023-06-10T02:32:41;100956.09;;;17.09;76.77
35224;BME280;21367;51.930;8.112;2023-06-10T02:37:53;100965.06;;;17.26;76.18
35224;BME280;21367;51.930;8.112;2023-06-10T02:42:57;100964.78;;;17.11;76.35
35224;BME280;21367;51.930;8.112;2023-06-10T02:48:01;100961.34;;;17.14;75.73
35224;BME280;21367;51.930;8.112;2023-06-10T02:53:10;100968.91;;;17.01;76.58
35224;BME280;21367;51.930;8.112;2023-06-10T02:58:18;100964.69;;;17.05;76.64
35224;BME280;21367;51.930;8.112;2023-06-10T03:03:23;100964.25;;;16.85;77.82
35224;BME280;21367;51.930;8.112;2023-06-10T03:08:43;100965.56;;;16.66;78.55
35224;BME280;21367;51.930;8.112;2023-06-10T03:13:50;100958.38;;;16.54;79.72
35224;BME280;21367;51.930;8.112;2023-06-10T03:18:55;100971.75;;;16.73;79.40
35224;BME280;21367;51.930;8.112;2023-06-10T03:24:01;100973.28;;;16.24;80.68
35224;BME280;21367;51.930;8.112;2023-06-10T03:29:05;100968.31;;;16.33;81.09
35224;BME280;21367;51.930;8.112;2023-06-10T03:34:09;100972.56;;;15.94;82.54
35224;BME280;21367;51.930;8.112;2023-06-10T03:39:16;100975.19;;;16.32;81.83
35224;BME280;21367;51.930;8.112;2023-06-10T03:44:21;100982.59;;;16.53;80.83
35224;BME280;21367;51.930;8.112;2023-06-10T03:49:25;100987.13;;;16.63;80.26
35224;BME280;21367;51.930;8.112;2023-06-10T03:54:36;100980.50;;;16.38;81.30
35224;BME280;21367;51.930;8.112;2023-06-10T03:59:39;100977.91;;;16.37;82.29
35224;BME280;21367;51.930;8.112;2023-06-10T04:04:43;100973.97;;;16.95;79.20
35224;BME280;21367;51.930;8.112;2023-06-10T04:09:50;100976.47;;;16.51;80.81
35224;BME280;21367;51.930;8.112;2023-06-10T04:14:55;100979.88;;;16.86;80.55
35224;BME280;21367;51.930;8.112;2023-06-10T04:19:59;100978.59;;;16.68;81.19
35224;BME280;21367;51.930;8.112;2023-06-10T04:25:09;100982.72;;;16.22;83.41
35224;BME280;21367;51.930;8.112;2023-06-10T04:30:15;100977.38;;;16.14;84.71
35224;BME280;21367;51.930;8.112;2023-06-10T04:35:19;100985.91;;;16.10;85.24
35224;BME280;21367;51.930;8.112;2023-06-10T04:40:26;100986.91;;;16.53;83.97
35224;BME280;21367;51.930;8.112;2023-06-10T04:45:30;100989.78;;;16.66;82.98
35224;BME280;21367;51.930;8.112;2023-06-10T04:50:34;100994.63;;;16.51;83.79
35224;BME280;21367;51.930;8.112;2023-06-10T04:55:40;100995.66;;;16.97;81.17
35224;BME280;21367;51.930;8.112;2023-06-10T05:00:44;100999.78;;;16.87;82.50
35224;BME280;21367;51.930;8.112;2023-06-10T05:05:47;101001.22;;;16.75;82.99
35224;BME280;21367;51.930;8.112;2023-06-10T05:10:54;100996.19;;;16.81;81.00
35224;BME280;21367;51.930;8.112;2023-06-10T05:15:57;101000.66;;;16.86;81.08
35224;BME280;21367;51.930;8.112;2023-06-10T05:21:01;101004.66;;;16.74;81.20
35224;BME280;21367;51.930;8.112;2023-06-10T05:26:07;101009.09;;;17.20;79.78
35224;BME280;21367;51.930;8.112;2023-06-10T05:31:11;101014.59;;;17.35;80.06
35224;BME280;21367;51.930;8.112;2023-06-10T05:36:16;101015.50;;;17.36;79.21
35224;BME280;21367;51.930;8.112;2023-06-10T05:41:22;101016.44;;;17.41;78.86
35224;BME280;21367;51.930;8.112;2023-06-10T05:46:26;101012.41;;;17.57;77.75
35224;BME280;21367;51.930;8.112;2023-06-10T05:51:30;101013.38;;;17.64;77.00
35224;BME280;21367;51.930;8.112;2023-06-10T05:56:36;101014.19;;;17.58;76.65
35224;BME280;21367;51.930;8.112;2023-06-10T06:01:39;101001.78;;;17.92;75.63
35224;BME280;21367;51.930;8.112;2023-06-10T06:06:43;101000.03;;;17.91;74.88
35224;BME280;21367;51.930;8.112;2023-06-10T06:11:49;101005.66;;;18.15;76.65
35224;BME280;21367;51.930;8.112;2023-06-10T06:16:53;101009.06;;;18.14;74.58
35224;BME280;21367;51.930;8.112;2023-06-10T06:21:56;101014.63;;;18.34;74.45
35224;BME280;21367;51.930;8.112;2023-06-10T06:27:03;101012.47;;;18.66;73.29
35224;BME280;21367;51.930;8.112;2023-06-10T06:32:08;101014.44;;;18.81;73.04
35224;BME280;21367;51.930;8.112;2023-06-10T06:37:12;101008.66;;;19.05;70.94
35224;BME280;21367;51.930;8.112;2023-06-10T06:42:20;101009.75;;;19.23;68.22
35224;BME280;21367;51.930;8.112;2023-06-10T06:47:36;101012.84;;;19.66;65.91
35224;BME280;21367;51.930;8.112;2023-06-10T06:52:40;101007.78;;;19.81;63.18
35224;BME280;21367;51.930;8.112;2023-06-10T06:57:46;101004.47;;;20.00;63.14
35224;BME280;21367;51.930;8.112;2023-06-10T07:02:50;101004.66;;;20.28;62.75
35224;BME280;21367;51.930;8.112;2023-06-10T07:07:54;101002.13;;;20.42;61.58
35224;BME280;21367;51.930;8.112;2023-06-10T07:13:00;101011.91;;;20.67;62.34
35224;BME280;21367;51.930;8.112;2023-06-10T07:18:04;101005.06;;;20.98;63.35
35224;BME280;21367;51.930;8.112;2023-06-10T07:23:08;101003.34;;;21.02;61.29
35224;BME280;21367;51.930;8.112;2023-06-10T07:28:14;101001.63;;;21.06;60.67
35224;BME280;21367;51.930;8.112;2023-06-10T07:33:18;101002.56;;;21.31;61.01
35224;BME280;21367;51.930;8.112;2023-06-10T07:38:25;101006.16;;;21.60;61.75
35224;BME280;21367;51.930;8.112;2023-06-10T07:43:32;101000.94;;;21.69;61.98
35224;BME280;21367;51.930;8.112;2023-06-10T07:48:36;101009.66;;;21.75;59.18
35224;BME280;21367;51.930;8.112;2023-06-10T07:53:39;101009.72;;;22.16;58.05
35224;BME280;21367;51.930;8.112;2023-06-10T07:58:46;101012.25;;;22.56;58.84
35224;BME280;21367;51.930;8.112;2023-06-10T08:03:49;101021.00;;;22.46;58.55
35224;BME280;21367;51.930;8.112;2023-06-10T08:08:53;101021.78;;;22.89;58.68
35224;BME280;21367;51.930;8.112;2023-06-10T08:13:59;101021.50;;;23.49;58.14
35224;BME280;21367;51.930;8.112;2023-06-10T08:19:03;101019.50;;;23.91;55.07
35224;BME280;21367;51.930;8.112;2023-06-10T08:24:06;101010.53;;;24.19;51.66
35224;BME280;21367;51.930;8.112;2023-06-10T08:29:14;101014.31;;;23.82;50.81
35224;BME280;21367;51.930;8.112;2023-06-10T08:34:17;101020.56;;;24.65;50.20
35224;BME280;21367;51.930;8.112;2023-06-10T08:39:22;101015.91;;;24.90;48.67
35224;BME280;21367;51.930;8.112;2023-06-10T08:44:29;101017.53;;;25.02;49.54
35224;BME280;21367;51.930;8.112;2023-06-10T08:49:38;101013.69;;;25.29;47.84
35224;BME280;21367;51.930;8.112;2023-06-10T08:54:43;101014.09;;;25.62;47.56
35224;BME280;21367;51.930;8.112;2023-06-10T08:59:52;101006.13;;;26.21;46.58
35224;BME280;21367;51.930;8.112;2023-06-10T09:04:57;101008.19;;;26.53;47.14
35224;BME280;21367;51.930;8.112;2023-06-10T09:10:00;101016.63;;;26.72;47.85
35224;BME280;21367;51.930;8.112;2023-06-10T09:15:10;101003.88;;;26.47;44.98
35224;BME280;21367;51.930;8.112;2023-06-10T09:20:15;101003.84;;;26.52;44.81
35224;BME280;21367;51.930;8.112;2023-06-10T09:25:18;101004.63;;;26.99;45.63
35224;BME280;21367;51.930;8.112;2023-06-10T09:30:29;101003.34;;;27.59;44.65
35224;BME280;21367;51.930;8.112;2023-06-10T09:35:33;101010.56;;;27.51;44.50
35224;BME280;21367;51.930;8.112;2023-06-10T09:40:48;101007.91;;;26.67;44.67
35224;BME280;21367;51.930;8.112;2023-06-10T09:45:56;101005.09;;;27.19;46.34
35224;BME280;21367;51.930;8.112;2023-06-10T09:50:59;101005.03;;;27.22;47.08
35224;BME280;21367;51.930;8.112;2023-06-10T09:56:03;100996.84;;;28.08;45.99
35224;BME280;21367;51.930;8.112;2023-06-10T10:01:12;101004.91;;;28.03;44.26
35224;BME280;21367;51.930;8.112;2023-06-10T10:06:18;101010.13;;;28.39;43.94
35224;BME280;21367;51.930;8.112;2023-06-10T10:11:23;101008.69;;;28.91;45.67
35224;BME280;21367;51.930;8.112;2023-06-10T10:16:35;101003.84;;;28.10;46.04
35224;BME280;21367;51.930;8.112;2023-06-10T10:21:46;100999.66;;;28.98;43.34
35224;BME280;21367;51.930;8.112;2023-06-10T10:26:53;101000.16;;;28.18;46.12
35224;BME280;21367;51.930;8.112;2023-06-10T10:32:03;101009.31;;;29.31;45.26
35224;BME280;21367;51.930;8.112;2023-06-10T10:37:08;100998.94;;;29.52;42.32
35224;BME280;21367;51.930;8.112;2023-06-10T10:42:12;101003.03;;;28.74;44.06
35224;BME280;21367;51.930;8.112;2023-06-10T10:47:19;101008.16;;;29.39;44.31
35224;BME280;21367;51.930;8.112;2023-06-10T10:52:24;101000.84;;;29.19;43.57
35224;BME280;21367;51.930;8.112;2023-06-10T10:57:30;100992.97;;;31.21;41.00
35224;BME280;21367;51.930;8.112;2023-06-10T11:02:42;100996.47;;;30.28;40.89
35224;BME280;21367;51.930;8.112;2023-06-10T11:07:53;100991.38;;;30.22;41.44
35224;BME280;21367;51.930;8.112;2023-06-10T11:12:57;100984.28;;;29.69;41.81
35224;BME280;21367;51.930;8.112;2023-06-10T11:18:14;100975.09;;;29.24;42.68
35224;BME280;21367;51.930;8.112;2023-06-10T11:23:38;100978.31;;;29.62;43.68
35224;BME280;21367;51.930;8.112;2023-06-10T11:29:00;100974.28;;;32.11;37.85
35224;BME280;21367;51.930;8.112;2023-06-10T11:34:07;100981.44;;;29.47;42.91
35224;BME280;21367;51.930;8.112;2023-06-10T11:39:11;100974.22;;;31.26;39.24
35224;BME280;21367;51.930;8.112;2023-06-10T11:44:15;100962.91;;;31.65;40.04
35224;BME280;21367;51.930;8.112;2023-06-10T11:49:22;100970.44;;;30.62;41.57
35224;BME280;21367;51.930;8.112;2023-06-10T11:54:26;100972.25;;;30.12;42.22
35224;BME280;21367;51.930;8.112;2023-06-10T11:59:30;100958.28;;;29.80;41.51
35224;BME280;21367;51.930;8.112;2023-06-10T12:04:36;100956.03;;;31.39;39.93
35224;BME280;21367;51.930;8.112;2023-06-10T12:09:40;100950.91;;;32.19;39.22
35224;BME280;21367;51.930;8.112;2023-06-10T12:14:50;100953.44;;;31.79;40.24
35224;BME280;21367;51.930;8.112;2023-06-10T12:19:59;100955.53;;;31.05;40.64
35224;BME280;21367;51.930;8.112;2023-06-10T12:25:05;100949.59;;;30.52;42.09
35224;BME280;21367;51.930;8.112;2023-06-10T12:30:10;100951.97;;;31.94;39.88
35224;BME280;21367;51.930;8.112;2023-06-10T12:35:18;100945.66;;;30.87;41.05
35224;BME280;21367;51.930;8.112;2023-06-10T12:40:26;100950.19;;;32.74;39.09
35224;BME280;21367;51.930;8.112;2023-06-10T12:45:31;100940.41;;;32.74;39.77
35224;BME280;21367;51.930;8.112;2023-06-10T12:50:38;100948.41;;;32.74;39.11
35224;BME280;21367;51.930;8.112;2023-06-10T12:55:42;100941.66;;;33.77;37.35
35224;BME280;21367;51.930;8.112;2023-06-10T13:00:46;100943.97;;;31.52;39.63
35224;BME280;21367;51.930;8.112;2023-06-10T13:05:55;100935.91;;;33.68;37.48
35224;BME280;21367;51.930;8.112;2023-06-10T13:10:59;100935.00;;;31.54;42.12
35224;BME280;21367;51.930;8.112;2023-06-10T13:16:03;100935.69;;;33.36;38.73
35224;BME280;21367;51.930;8.112;2023-06-10T13:21:10;100927.00;;;32.38;40.60
35224;BME280;21367;51.930;8.112;2023-06-10T13:26:14;100929.91;;;33.09;39.50
35224;BME280;21367;51.930;8.112;2023-06-10T13:31:18;100920.16;;;33.27;39.31
35224;BME280;21367;51.930;8.112;2023-06-10T13:36:25;100916.19;;;32.99;39.72
35224;BME280;21367;51.930;8.112;2023-06-10T13:41:28;100919.78;;;32.60;39.68
35224;BME280;21367;51.930;8.112;2023-06-10T13:46:32;100904.25;;;31.69;40.23
35224;BME280;21367;51.930;8.112;2023-06-10T13:51:38;100899.41;;;33.16;39.05
35224;BME280;21367;51.930;8.112;2023-06-10T13:56:42;100889.81;;;33.12;37.68
35224;BME280;21367;51.930;8.112;2023-06-10T14:01:46;100891.75;;;33.45;38.32
35224;BME280;21367;51.930;8.112;2023-06-10T14:06:52;100894.97;;;33.69;37.25
35224;BME280;21367;51.930;8.112;2023-06-10T14:11:56;100888.66;;;31.40;41.22
35224;BME280;21367;51.930;8.112;2023-06-10T14:16:59;100891.13;;;32.65;40.93
35224;BME280;21367;51.930;8.112;2023-06-10T14:22:06;100886.56;;;32.30;40.21
35224;BME280;21367;51.930;8.112;2023-06-10T14:27:10;100886.38;;;33.63;38.04
35224;BME280;21367;51.930;8.112;2023-06-10T14:32:14;100891.72;;;33.10;39.53
35224;BME280;21367;51.930;8.112;2023-06-10T14:37:20;100884.81;;;34.43;37.26
35224;BME280;21367;51.930;8.112;2023-06-10T14:42:24;100886.53;;;33.07;39.17
35224;BME280;21367;51.930;8.112;2023-06-10T14:47:27;100879.78;;;34.70;37.62
35224;BME280;21367;51.930;8.112;2023-06-10T14:52:34;100879.06;;;34.51;37.44
35224;BME280;21367;51.930;8.112;2023-06-10T14:57:37;100881.28;;;34.27;38.50
35224;BME280;21367;51.930;8.112;2023-06-10T15:02:40;100862.13;;;34.19;37.17
35224;BME280;21367;51.930;8.112;2023-06-10T15:07:47;100853.00;;;33.37;37.44
35224;BME280;21367;51.930;8.112;2023-06-10T15:12:50;100867.22;;;33.73;38.63
35224;BME280;21367;51.930;8.112;2023-06-10T15:17:56;100854.00;;;35.01;36.64
35224;BME280;21367;51.930;8.112;2023-06-10T15:23:02;100848.22;;;33.27;38.82
35224;BME280;21367;51.930;8.112;2023-06-10T15:28:08;100843.31;;;31.65;41.70
35224;BME280;21367;51.930;8.112;2023-06-10T15:33:12;100841.50;;;32.64;39.85
35224;BME280;21367;51.930;8.112;2023-06-10T15:38:18;100829.50;;;33.46;39.28
35224;BME280;21367;51.930;8.112;2023-06-10T15:43:22;100831.22;;;32.93;40.50
35224;BME280;21367;51.930;8.112;2023-06-10T15:48:26;100831.75;;;32.07;41.06
35224;BME280;21367;51.930;8.112;2023-06-10T15:53:32;100841.22;;;32.52;41.09
35224;BME280;21367;51.930;8.112;2023-06-10T15:58:36;100824.09;;;31.99;41.77
35224;BME280;21367;51.930;8.112;2023-06-10T16:03:40;100835.63;;;33.48;38.92
35224;BME280;21367;51.930;8.112;2023-06-10T16:08:46;100833.59;;;31.01;43.03
35224;BME280;21367;51.930;8.112;2023-06-10T16:13:51;100829.75;;;33.41;40.01
35224;BME280;21367;51.930;8.112;2023-06-10T16:18:54;100815.75;;;33.88;38.43
35224;BME280;21367;51.930;8.112;2023-06-10T16:24:01;100819.09;;;32.12;42.07
35224;BME280;21367;51.930;8.112;2023-06-10T16:29:04;100816.66;;;33.36;40.16
35224;BME280;21367;51.930;8.112;2023-06-10T16:34:08;100822.66;;;32.31;41.96
35224;BME280;21367;51.930;8.112;2023-06-10T16:39:14;100825.81;;;31.40;42.72
35224;BME280;21367;51.930;8.112;2023-06-10T16:44:18;100828.72;;;32.90;41.95
35224;BME280;21367;51.930;8.112;2023-06-10T16:49:21;100828.09;;;32.85;41.86
35224;BME280;21367;51.930;8.112;2023-06-10T16:54:27;100828.41;;;33.50;40.99
35224;BME280;21367;51.930;8.112;2023-06-10T16:59:31;100822.97;;;31.43;43.16
35224;BME280;21367;51.930;8.112;2023-06-10T17:04:35;100825.66;;;32.61;42.35
35224;BME280;21367;51.930;8.112;2023-06-10T17:09:41;100818.31;;;32.85;41.63
35224;BME280;21367;51.930;8.112;2023-06-10T17:14:45;100824.63;;;32.83;41.81
35224;BME280;21367;51.930;8.112;2023-06-10T17:19:48;100825.47;;;31.48;42.87
35224;BME280;21367;51.930;8.112;2023-06-10T17:24:55;100826.59;;;31.63;43.17
35224;BME280;21367;51.930;8.112;2023-06-10T17:29:58;100819.94;;;31.73;42.61
35224;BME280;21367;51.930;8.112;2023-06-10T17:35:02;100834.06;;;32.14;42.13
35224;BME280;21367;51.930;8.112;2023-06-10T17:40:10;100829.25;;;32.22;41.49
35224;BME280;21367;51.930;8.112;2023-06-10T17:45:15;100831.16;;;31.79;42.63
35224;BME280;21367;51.930;8.112;2023-06-10T17:50:18;100833.22;;;30.19;44.27
35224;BME280;21367;51.930;8.112;2023-06-10T17:55:24;100838.59;;;28.58;48.03
35224;BME280;21367;51.930;8.112;2023-06-10T18:00:28;100849.41;;;28.50;49.18
35224;BME280;21367;51.930;8.112;2023-06-10T18:05:32;100854.72;;;28.50;48.99
35224;BME280;21367;51.930;8.112;2023-06-10T18:10:38;100854.34;;;28.00;50.33
35224;BME280;21367;51.930;8.112;2023-06-10T18:15:42;100858.75;;;27.67;51.23
35224;BME280;21367;51.930;8.112;2023-06-10T18:20:46;100854.09;;;27.77;51.03
35224;BME280;21367;51.930;8.112;2023-06-10T18:25:52;100850.63;;;27.03;52.67
35224;BME280;21367;51.930;8.112;2023-06-10T18:30:55;100860.25;;;27.43;51.84
35224;BME280;21367;51.930;8.112;2023-06-10T18:35:59;100857.09;;;27.29;52.18
35224;BME280;21367;51.930;8.112;2023-06-10T18:41:06;100862.75;;;27.12;52.70
35224;BME280;21367;51.930;8.112;2023-06-10T18:46:09;100878.88;;;26.61;54.19
35224;BME280;21367;51.930;8.112;2023-06-10T18:51:13;100882.09;;;26.73;54.18
35224;BME280;21367;51.930;8.112;2023-06-10T18:56:19;100880.47;;;26.66;54.34
35224;BME280;21367;51.930;8.112;2023-06-10T19:01:23;100882.56;;;26.52;54.76
35224;BME280;21367;51.930;8.112;2023-06-10T19:06:27;100876.16;;;26.20;55.11
35224;BME280;21367;51.930;8.112;2023-06-10T19:11:33;100887.53;;;25.73;57.25
35224;BME280;21367;51.930;8.112;2023-06-10T19:16:37;100888.72;;;25.55;57.56
35224;BME280;21367;51.930;8.112;2023-06-10T19:21:41;100887.00;;;25.52;57.96
35224;BME280;21367;51.930;8.112;2023-06-10T19:26:47;100892.75;;;25.22;58.50
35224;BME280;21367;51.930;8.112;2023-06-10T19:31:50;100896.94;;;25.36;57.70
35224;BME280;21367;51.930;8.112;2023-06-10T19:36:54;100916.75;;;24.97;58.79
35224;BME280;21367;51.930;8.112;2023-06-10T19:42:00;100924.88;;;24.79;59.56
35224;BME280;21367;51.930;8.112;2023-06-10T19:47:07;100926.78;;;24.69;59.89
35224;BME280;21367;51.930;8.112;2023-06-10T19:52:11;100929.69;;;24.46;60.27
35224;BME280;21367;51.930;8.112;2023-06-10T19:57:17;100931.63;;;24.27;60.11
35224;BME280;21367;51.930;8.112;2023-06-10T20:02:22;100938.28;;;24.60;59.33
35224;BME280;21367;51.930;8.112;2023-06-10T20:07:26;100925.28;;;24.48;59.17
35224;BME280;21367;51.930;8.112;2023-06-10T20:12:32;100942.34;;;24.84;58.06
35224;BME280;21367;51.930;8.112;2023-06-10T20:17:35;100947.56;;;24.89;58.02
35224;BME280;21367;51.930;8.112;2023-06-10T20:22:41;100954.00;;;24.66;58.74
35224;BME280;21367;51.930;8.112;2023-06-10T20:27:47;100959.94;;;24.81;58.33
35224;BME280;21367;51.930;8.112;2023-06-10T20:32:52;100955.91;;;24.51;59.02
35224;BME280;21367;51.930;8.112;2023-06-10T20:37:55;100969.84;;;24.59;59.03
35224;BME280;21367;51.930;8.112;2023-06-10T20:43:01;100977.88;;;24.45;60.28
35224;BME280;21367;51.930;8.112;2023-06-10T20:48:05;100983.34;;;24.19;60.77
35224;BME280;21367;51.930;8.112;2023-06-10T20:53:09;100980.72;;;24.19;61.82
35224;BME280;21367;51.930;8.112;2023-06-10T20:58:15;100989.28;;;23.30;63.42
35224;BME280;21367;51.930;8.112;2023-06-10T21:03:19;100994.81;;;22.49;66.10
35224;BME280;21367;51.930;8.112;2023-06-10T21:08:22;101002.69;;;22.47;66.61
35224;BME280;21367;51.930;8.112;2023-06-10T21:13:29;100996.38;;;23.11;64.71
35224;BME280;21367;51.930;8.112;2023-06-10T21:18:32;101003.41;;;23.01;64.48
35224;BME280;21367;51.930;8.112;2023-06-10T21:23:36;101000.72;;;23.14;64.72
35224;BME280;21367;51.930;8.112;2023-06-10T21:28:42;101004.31;;;22.91;65.14
35224;BME280;21367;51.930;8.112;2023-06-10T21:33:46;101014.88;;;22.57;66.15
35224;BME280;21367;51.930;8.112;2023-06-10T21:38:50;101011.31;;;22.83;65.55
35224;BME280;21367;51.930;8.112;2023-06-10T21:43:56;101015.75;;;22.59;66.01
35224;BME280;21367;51.930;8.112;2023-06-10T21:48:59;101016.66;;;22.35;66.40
35224;BME280;21367;51.930;8.112;2023-06-10T21:54:04;101019.31;;;22.26;66.27
35224;BME280;21367;51.930;8.112;2023-06-10T21:59:10;101024.50;;;22.37;65.72
35224;BME280;21367;51.930;8.112;2023-06-10T22:04:14;101016.69;;;22.20;66.16
35224;BME280;21367;51.930;8.112;2023-06-10T22:09:18;101019.28;;;22.05;66.29
35224;BME280;21367;51.930;8.112;2023-06-10T22:14:24;101018.31;;;21.35;68.61
35224;BME280;21367;51.930;8.112;2023-06-10T22:19:28;101019.66;;;20.53;70.14
35224;BME280;21367;51.930;8.112;2023-06-10T22:24:32;101023.47;;;21.24;67.40
35224;BME280;21367;51.930;8.112;2023-06-10T22:29:38;101022.63;;;21.29;66.96
35224;BME280;21367;51.930;8.112;2023-06-10T22:34:41;101028.81;;;21.52;66.17
35224;BME280;21367;51.930;8.112;2023-06-10T22:39:45;101020.84;;;21.15;67.20
35224;BME280;21367;51.930;8.112;2023-06-10T22:44:51;101022.63;;;21.30;66.68
35224;BME280;21367;51.930;8.112;2023-06-10T22:49:55;101025.94;;;20.89;67.75
35224;BME280;21367;51.930;8.112;2023-06-10T22:54:58;101017.34;;;21.21;66.59
35224;BME280;21367;51.930;8.112;2023-06-10T23:00:06;101028.66;;;21.14;66.63
35224;BME280;21367;51.930;8.112;2023-06-10T23:05:10;101032.13;;;21.07;67.19
35224;BME280;21367;51.930;8.112;2023-06-10T23:10:14;101031.91;;;20.67;68.29
35224;BME280;21367;51.930;8.112;2023-06-10T23:15:20;101025.63;;;20.39;69.46
35224;BME280;21367;51.930;8.112;2023-06-10T23:20:23;101036.22;;;20.59;68.14
35224;BME280;21367;51.930;8.112;2023-06-10T23:25:27;101041.25;;;20.32;68.00
35224;BME280;21367;51.930;8.112;2023-06-10T23:30:34;101038.50;;;20.16;69.85
35224;BME280;21367;51.930;8.112;2023-06-10T23:35:38;101040.31;;;20.21;69.22
35224;BME280;21367;51.930;8.112;2023-06-10T23:40:41;101038.69;;;20.37;68.30
35224;BME280;21367;51.930;8.112;2023-06-10T23:45:47;101046.47;;;20.34;68.34
35224;BME280;21367;51.930;8.112;2023-06-10T23:50:51;101044.69;;;20.30;68.74
35224;BME280;21367;51.930;8.112;2023-06-10T23:55:55;101051.50;;;20.09;69.50
